CYKY

Kindersley Airport

Kindersley, Saskatchewan, Canada
METAR CYKY 191900Z 29022KT 15SM FEW160 SCT260 12/M03 A3028 RMK AC1CI3 AC TR SLP273
Observed Flight Rules
Oct-19 @ 19:00 UTC (51 minutes ago) Visual Flight Rules
Wind Visibility Clouds
290° at 22 knots 15 miles
  • Few at 16,000' AGL
  • Scattered at 26,000' AGL
Temperatures Readings
Current 12°C / 54°F
Dewpoint -3°C / 27°F
Humidity 35%
Altimeter 30.28" Hg
Pressure 1027.3 hPa
Elevation 694
METAR CYKY 191900Z 29022KT 15SM FEW160 SCT260 12/M03 A3028 RMK AC1CI3 AC TR SLP273
Observed Flight Rules
Oct-19 @ 19:00 UTC
(51 minutes ago)
VFR
Wind Visibility
290° at 22 knots 15 miles
Clouds
  • Few at 16,000' AGL
  • Scattered at 26,000' AGL
Temperature Dewpoint
12°C / 54°F -3°C / 27°F
Humidity Altimeter Pressure
35% 30.28" Hg 1027.3 hPa